This is the latest recevied weather packets stored in our database for station/object W2BP-13. If no packets are shown the sender has not sent any weather packets the latest 10 day(s).
| Time | Temp. | Humidity | Pressure | Rain* | Wind** | Luminosity | Snow |
|---|---|---|---|---|---|---|---|
| 1777727433 | 12.78° C | 68% | 1017.3 hPa | 0 mm | - | - | - |
| 1777726532 | 12.78° C | 67% | 1016.8 hPa | 0 mm | - | - | - |
| 1777725633 | 13.33° C | 69% | 1017.1 hPa | 0 mm | - | - | - |
| 1777724732 | 13.33° C | 66% | 1017.3 hPa | 0 mm | - | - | - |
| 1777723833 | 13.33° C | 65% | 1017 hPa | 0 mm | - | - | - |
| 1777722932 | 13.89° C | 61% | 1016.8 hPa | 0 mm | - | - | - |
| 1777722033 | 13.33° C | 63% | 1017 hPa | 0 mm | - | - | - |
| 1777721133 | 13.89° C | 63% | 1017.2 hPa | 0 mm | - | - | - |
| 1777720233 | 14.44° C | 59% | 1017 hPa | 0 mm | - | - | - |
| 1777719333 | 15° C | 57% | 1016.6 hPa | 0 mm | - | - | - |
| 1777718433 | 15° C | 59% | 1016.7 hPa | 0 mm | - | - | - |
| 1777717532 | 15° C | 60% | 1016.6 hPa | 0 mm | - | - | - |
| 1777716632 | 15° C | 61% | 1016.7 hPa | 0 mm | - | - | - |
| 1777715733 | 15° C | 62% | 1016.6 hPa | 0 mm | - | - | - |
| 1777714833 | 15.56° C | 58% | 1016.6 hPa | 0 mm | - | - | - |
| 1777713934 | 15.56° C | 58% | 1016.4 hPa | 0 mm | - | - | - |
| 1777713033 | 15.56° C | 59% | 1016.5 hPa | 0 mm | - | - | - |
| 1777712133 | 16.11° C | 58% | 1016.5 hPa | 0 mm | - | - | - |
| 1777711233 | 16.11° C | 57% | 1016.5 hPa | 0 mm | - | - | - |
| 1777710333 | 16.11° C | 59% | 1016.6 hPa | 0 mm | - | - | - |
| 1777709433 | 16.11° C | 57% | 1016.6 hPa | 0 mm | - | - | - |
| 1777708533 | 16.67° C | 55% | 1016.6 hPa | 0 mm | - | - | - |
| 1777707632 | 17.22° C | 53% | 1016.6 hPa | 0 mm | - | - | - |
| 1777706733 | 17.22° C | 51% | 1016.4 hPa | 0 mm | - | - | - |
| 1777705833 | 17.22° C | 52% | 1016.8 hPa | 0 mm | - | - | - |
* Rain latest hour (hover to see other rain measurements)
** Current wind speed in m/s (hover to see current wind gust speed)